createdAt,value
2018-11-27T00:00:13.180Z,96916.73
2018-11-27T00:02:40.815Z,96920.06
2018-11-27T00:05:08.969Z,96925.23
2018-11-27T00:07:36.639Z,96928.27
2018-11-27T00:10:04.807Z,96936.98
2018-11-27T00:12:32.471Z,96935.57
2018-11-27T00:15:00.091Z,96940.94
2018-11-27T00:17:27.719Z,96936.08
2018-11-27T00:19:55.345Z,96938.81
2018-11-27T00:22:22.972Z,96943.16
2018-11-27T00:24:50.596Z,96941.98
2018-11-27T00:27:18.226Z,96951.69
2018-11-27T00:29:45.855Z,96944.49
2018-11-27T00:32:13.480Z,96948.91
2018-11-27T00:34:41.121Z,96945.09
2018-11-27T00:37:08.772Z,96950.23
2018-11-27T00:39:36.432Z,96948.22
2018-11-27T00:42:04.079Z,96952.24
2018-11-27T00:44:31.712Z,96950.84
2018-11-27T00:46:59.349Z,96962.33
2018-11-27T00:49:26.983Z,96959.65
2018-11-27T00:51:54.632Z,96961.47
2018-11-27T00:54:22.265Z,96970.76
2018-11-27T00:56:50.024Z,96963.45
2018-11-27T00:59:17.655Z,96971.50
2018-11-27T01:01:45.283Z,96978.11
2018-11-27T01:04:12.902Z,96983.63
2018-11-27T01:06:40.539Z,96980.41
2018-11-27T01:09:08.587Z,96982.30
2018-11-27T01:11:36.472Z,96986.31
2018-11-27T01:14:04.114Z,96988.83
2018-11-27T01:16:31.739Z,96992.61
2018-11-27T01:18:59.359Z,96994.20
2018-11-27T01:21:26.987Z,96996.84
2018-11-27T01:23:54.623Z,96999.63
2018-11-27T01:26:22.315Z,97003.23
2018-11-27T01:28:49.951Z,97006.02
2018-11-27T01:31:17.575Z,97005.49
2018-11-27T01:33:45.207Z,97005.55
2018-11-27T01:36:12.847Z,97008.40
2018-11-27T01:38:40.496Z,97013.32
2018-11-27T01:41:08.199Z,97006.71
2018-11-27T01:43:35.935Z,97009.34
2018-11-27T01:46:03.807Z,97005.72
2018-11-27T01:48:31.430Z,97009.57
2018-11-27T01:50:59.052Z,97006.56
2018-11-27T01:53:26.706Z,97011.39
2018-11-27T01:55:54.363Z,97009.23
2018-11-27T01:58:21.987Z,97011.84
2018-11-27T02:00:49.616Z,97012.39
2018-11-27T02:03:17.287Z,97008.09
2018-11-27T02:05:44.916Z,97015.13
2018-11-27T02:08:12.580Z,97009.33
2018-11-27T02:10:40.242Z,97006.22
2018-11-27T02:13:07.875Z,97009.91
2018-11-27T02:15:35.498Z,97016.89
2018-11-27T02:18:03.232Z,97018.02
2018-11-27T02:20:30.864Z,97015.59
2018-11-27T02:22:58.561Z,97021.61
2018-11-27T02:25:26.815Z,97021.33
2018-11-27T02:27:54.498Z,97025.27
2018-11-27T02:30:23.079Z,97026.08
2018-11-27T02:32:50.752Z,97018.39
2018-11-27T02:35:18.767Z,97020.47
2018-11-27T02:37:46.929Z,97016.88
2018-11-27T02:40:14.984Z,97024.02
2018-11-27T02:42:42.607Z,97019.45
2018-11-27T02:45:11.840Z,97029.83
2018-11-27T02:47:39.524Z,97030.78
2018-11-27T02:50:10.771Z,97033.86
2018-11-27T02:52:38.389Z,97031.97
2018-11-27T02:55:07.235Z,97040.02
2018-11-27T02:57:34.863Z,97039.20
2018-11-27T03:00:02.537Z,97047.28
2018-11-27T03:02:30.182Z,97045.92
2018-11-27T03:04:57.830Z,97042.86
2018-11-27T03:07:25.460Z,97044.00
2018-11-27T03:09:53.095Z,97048.56
2018-11-27T03:12:20.848Z,97048.61
2018-11-27T03:14:48.576Z,97053.41
2018-11-27T03:17:16.220Z,97046.75
2018-11-27T03:19:43.843Z,97051.30
2018-11-27T03:22:11.475Z,97059.58
2018-11-27T03:24:39.112Z,97061.09
2018-11-27T03:27:06.752Z,97061.14
2018-11-27T03:29:34.533Z,97058.45
2018-11-27T03:32:02.226Z,97060.55
2018-11-27T03:34:29.859Z,97061.39
2018-11-27T03:36:57.516Z,97065.84
2018-11-27T03:39:25.148Z,97070.00
2018-11-27T03:41:52.783Z,97074.08
2018-11-27T03:44:20.424Z,97075.09
2018-11-27T03:46:48.104Z,97077.36
2018-11-27T03:49:15.751Z,97084.23
2018-11-27T03:51:43.435Z,97080.32
2018-11-27T03:54:11.068Z,97089.50
2018-11-27T03:56:38.752Z,97083.53
2018-11-27T03:59:06.569Z,97090.80
2018-11-27T04:01:34.373Z,97090.37
2018-11-27T04:04:02.028Z,97095.16
2018-11-27T04:06:29.683Z,97094.30
2018-11-27T04:08:57.324Z,97096.00
2018-11-27T04:11:24.983Z,97095.32
2018-11-27T04:13:52.610Z,97096.00
2018-11-27T04:16:20.237Z,97097.36
2018-11-27T04:18:47.876Z,97100.38
2018-11-27T04:21:15.542Z,97096.87
2018-11-27T04:23:43.172Z,97096.00
2018-11-27T04:26:10.890Z,97103.11
2018-11-27T04:28:38.515Z,97102.94
2018-11-27T04:31:06.144Z,97104.50
2018-11-27T04:33:33.800Z,97107.72
2018-11-27T04:36:01.437Z,97109.78
2018-11-27T04:38:29.092Z,97109.76
2018-11-27T04:40:56.755Z,97116.80
2018-11-27T04:43:24.418Z,97116.05
2018-11-27T04:45:52.081Z,97117.84
2018-11-27T04:48:19.747Z,97121.17
2018-11-27T04:50:47.380Z,97123.54
2018-11-27T04:53:15.103Z,97125.20
2018-11-27T04:55:43.031Z,97131.38
2018-11-27T04:58:10.982Z,97124.44
2018-11-27T05:00:38.670Z,97127.77
2018-11-27T05:03:06.523Z,97133.14
2018-11-27T05:05:34.493Z,97093.38
2018-11-27T05:08:02.595Z,97138.05
2018-11-27T05:10:30.591Z,97140.98
2018-11-27T05:12:58.251Z,97138.94
2018-11-27T05:15:26.622Z,97147.05
2018-11-27T05:17:54.897Z,97147.72
2018-11-27T05:20:23.086Z,97151.31
2018-11-27T05:22:51.138Z,97152.08
2018-11-27T05:25:19.069Z,97156.78
2018-11-27T05:27:47.276Z,97156.58
2018-11-27T05:30:16.311Z,97157.87
2018-11-27T05:32:44.071Z,97162.83
2018-11-27T05:35:12.401Z,97163.72
2018-11-27T05:37:40.467Z,97168.77
2018-11-27T05:40:09.355Z,97169.05
2018-11-27T05:42:36.983Z,97171.56
2018-11-27T05:45:05.200Z,97170.44
2018-11-27T05:47:32.844Z,97176.95
2018-11-27T05:50:00.463Z,97182.59
2018-11-27T05:52:28.135Z,97185.00
2018-11-27T05:54:55.866Z,97186.20
2018-11-27T05:57:23.501Z,97191.73
2018-11-27T05:59:51.159Z,97196.20
2018-11-27T06:02:18.783Z,97193.71
2018-11-27T06:04:46.484Z,97190.07
2018-11-27T06:07:14.121Z,97198.19
2018-11-27T06:09:41.746Z,97200.55
2018-11-27T06:12:09.511Z,97200.98
2018-11-27T06:14:37.139Z,97204.14
2018-11-27T06:17:04.819Z,97202.58
2018-11-27T06:19:32.456Z,97215.05
2018-11-27T06:22:00.174Z,97215.45
2018-11-27T06:24:27.800Z,97219.36
2018-11-27T06:26:55.506Z,97223.50
2018-11-27T06:29:23.159Z,97222.21
2018-11-27T06:31:50.811Z,97226.09
2018-11-27T06:34:18.531Z,97230.82
2018-11-27T06:36:46.186Z,97230.28
2018-11-27T06:39:13.830Z,97243.88
2018-11-27T06:41:41.854Z,97248.34
2018-11-27T06:44:09.707Z,97250.27
2018-11-27T06:46:37.360Z,97249.95
2018-11-27T06:49:05.175Z,97264.74
2018-11-27T06:51:32.899Z,97260.42
2018-11-27T06:54:00.568Z,97265.16
2018-11-27T06:56:28.221Z,97265.80
2018-11-27T06:58:55.907Z,97262.96
2018-11-27T07:01:23.550Z,97271.67
2018-11-27T07:03:51.276Z,97272.64
2018-11-27T07:06:18.899Z,97276.84
2018-11-27T07:08:46.628Z,97282.63
2018-11-27T07:11:14.258Z,97284.30
2018-11-27T07:13:41.896Z,97287.62
2018-11-27T07:16:09.535Z,97289.66
2018-11-27T07:18:37.201Z,97298.59
2018-11-27T07:21:05.267Z,97305.80
2018-11-27T07:23:32.887Z,97307.68
2018-11-27T07:26:00.570Z,97314.81
2018-11-27T07:28:28.209Z,97322.08
2018-11-27T07:30:55.832Z,97316.16
2018-11-27T07:33:23.455Z,97325.66
2018-11-27T07:35:51.106Z,97324.53
2018-11-27T07:38:18.815Z,97308.91
2018-11-27T07:40:46.497Z,97326.11
2018-11-27T07:43:14.387Z,97338.91
2018-11-27T07:45:42.190Z,97337.43
2018-11-27T07:48:10.161Z,97339.09
2018-11-27T07:50:38.091Z,97337.24
2018-11-27T07:53:05.982Z,97342.09
2018-11-27T07:55:33.713Z,97343.89
2018-11-27T07:58:01.453Z,97370.54
2018-11-27T08:00:29.344Z,97346.91
2018-11-27T08:02:57.646Z,97348.25
2018-11-27T08:05:29.096Z,97354.88
2018-11-27T08:07:57.104Z,97357.66
2018-11-27T08:10:25.462Z,97367.83
2018-11-27T08:12:53.242Z,97367.70
2018-11-27T08:15:21.755Z,97370.30
2018-11-27T08:17:49.453Z,97366.36
2018-11-27T08:20:18.641Z,97366.27
2018-11-27T08:22:46.379Z,97353.39
2018-11-27T08:25:14.260Z,97373.91
2018-11-27T08:27:41.932Z,97383.33
2018-11-27T08:30:13.005Z,97386.49
2018-11-27T08:32:40.665Z,97388.95
2018-11-27T08:35:11.848Z,97391.70
2018-11-27T08:37:39.701Z,97391.07
2018-11-27T08:40:08.652Z,97398.18
2018-11-27T08:42:36.310Z,97392.03
2018-11-27T08:45:03.999Z,97403.33
2018-11-27T08:47:31.674Z,97405.22
2018-11-27T08:49:59.383Z,97385.71
2018-11-27T08:52:27.073Z,97413.15
2018-11-27T08:54:54.763Z,97412.52
2018-11-27T08:57:22.392Z,97429.09
2018-11-27T08:59:50.016Z,97424.20
2018-11-27T09:02:17.664Z,97419.23
2018-11-27T09:04:45.326Z,97423.49
2018-11-27T09:07:12.940Z,97429.09
2018-11-27T09:09:40.593Z,97427.04
2018-11-27T09:12:08.561Z,97434.86
2018-11-27T09:14:36.259Z,97432.17
2018-11-27T09:17:03.909Z,97437.55
2018-11-27T09:19:31.554Z,97436.78
2018-11-27T09:21:59.199Z,97440.23
2018-11-27T09:24:26.843Z,97443.41
2018-11-27T09:26:54.755Z,97446.96
2018-11-27T09:29:22.395Z,97453.23
2018-11-27T09:31:50.061Z,97455.43
2018-11-27T09:34:17.682Z,97458.83
2018-11-27T09:36:45.316Z,97462.70
2018-11-27T09:39:12.942Z,97463.72
2018-11-27T09:41:40.599Z,97460.17
2018-11-27T09:44:08.236Z,97461.20
2018-11-27T09:46:35.939Z,97469.18
2018-11-27T09:49:03.579Z,97470.70
2018-11-27T09:51:31.225Z,97469.05
2018-11-27T09:53:59.015Z,97466.50
2018-11-27T09:56:26.707Z,97472.36
2018-11-27T09:58:54.361Z,97470.22
2018-11-27T10:01:21.995Z,97471.56
2018-11-27T10:03:49.645Z,97478.92
2018-11-27T10:06:17.263Z,97477.65
2018-11-27T10:08:44.896Z,97482.80
2018-11-27T10:11:12.561Z,97483.03
2018-11-27T10:13:40.240Z,97487.92
2018-11-27T10:16:07.876Z,97490.06
2018-11-27T10:18:35.503Z,97481.27
2018-11-27T10:21:03.188Z,97496.22
2018-11-27T10:23:30.841Z,97495.50
2018-11-27T10:25:58.484Z,97494.64
2018-11-27T10:28:26.119Z,97492.91
2018-11-27T10:30:53.747Z,97491.47
2018-11-27T10:33:21.418Z,97498.45
2018-11-27T10:35:50.432Z,97493.61
2018-11-27T10:38:18.095Z,97489.34
2018-11-27T10:40:45.963Z,97485.63
2018-11-27T10:43:19.505Z,97492.27
2018-11-27T10:45:41.510Z,97494.89
2018-11-27T10:48:09.364Z,97504.76
2018-11-27T10:50:37.052Z,97501.67
2018-11-27T10:53:04.971Z,97506.11
2018-11-27T10:55:32.643Z,97508.97
2018-11-27T10:58:00.317Z,97496.70
2018-11-27T11:00:33.114Z,97506.42
2018-11-27T11:04:06.199Z,97509.11
2018-11-27T11:06:33.895Z,97507.70
2018-11-27T11:09:01.774Z,97507.31
2018-11-27T11:11:29.401Z,97509.11
2018-11-27T11:13:57.052Z,97509.50
2018-11-27T11:16:24.682Z,97518.45
2018-11-27T11:18:52.324Z,97520.34
2018-11-27T11:21:20.028Z,97517.97
2018-11-27T11:23:47.649Z,97521.06
2018-11-27T11:26:15.345Z,97522.81
2018-11-27T11:28:42.974Z,97525.09
2018-11-27T11:31:10.612Z,97533.79
2018-11-27T11:33:38.264Z,97527.61
2018-11-27T11:36:06.279Z,97526.98
2018-11-27T11:38:33.992Z,97525.72
2018-11-27T11:41:01.734Z,97522.81
2018-11-27T11:43:29.360Z,97522.81
2018-11-27T11:45:56.988Z,97519.09
2018-11-27T11:48:24.604Z,97517.75
2018-11-27T11:50:52.268Z,97520.89
2018-11-27T11:53:19.891Z,97521.84
2018-11-27T11:55:47.926Z,97529.50
2018-11-27T11:58:15.555Z,97532.36
2018-11-27T12:00:45.553Z,97535.67
2018-11-27T12:03:13.183Z,97539.08
2018-11-27T12:05:40.795Z,97530.61
2018-11-27T12:08:08.824Z,97527.44
2018-11-27T12:10:36.767Z,97530.39
2018-11-27T12:13:04.467Z,97534.38
2018-11-27T12:15:32.165Z,97534.33
2018-11-27T12:17:59.790Z,97532.09
2018-11-27T12:20:27.402Z,97536.12
2018-11-27T12:22:55.027Z,97537.88
2018-11-27T12:25:24.396Z,97539.77
2018-11-27T12:27:50.708Z,97548.22
2018-11-27T12:30:19.853Z,97548.70
2018-11-27T12:32:47.466Z,97551.71
2018-11-27T12:35:15.600Z,97551.39
2018-11-27T12:37:43.219Z,97549.79
2018-11-27T12:40:12.398Z,97550.77
2018-11-27T12:42:40.053Z,97537.38
2018-11-27T12:45:08.631Z,97554.00
2018-11-27T12:47:36.288Z,97554.09
2018-11-27T12:50:03.976Z,97561.44
2018-11-27T12:52:31.616Z,97562.47
2018-11-27T12:54:59.240Z,97564.61
2018-11-27T12:57:26.876Z,97566.19
2018-11-27T12:59:54.493Z,97562.95
2018-11-27T13:02:22.158Z,97565.65
2018-11-27T13:04:49.808Z,97565.02
2018-11-27T13:07:17.474Z,97561.75
2018-11-27T13:09:45.133Z,97560.90
2018-11-27T13:12:12.791Z,97565.02
2018-11-27T13:14:40.515Z,97567.30
2018-11-27T13:17:08.171Z,97569.05
2018-11-27T13:19:35.820Z,97570.53
2018-11-27T13:22:03.440Z,97573.39
2018-11-27T13:24:31.124Z,97576.08
2018-11-27T13:26:58.779Z,97574.25
2018-11-27T13:29:26.424Z,97582.95
2018-11-27T13:31:54.043Z,97583.44
2018-11-27T13:34:21.727Z,97583.97
2018-11-27T13:36:49.360Z,97584.69
2018-11-27T13:39:22.499Z,97582.86
2018-11-27T13:41:50.119Z,97571.14
2018-11-27T13:44:17.812Z,97581.91
2018-11-27T13:46:45.471Z,97580.16
2018-11-27T13:49:13.096Z,97585.86
2018-11-27T13:51:40.735Z,97585.48
2018-11-27T13:54:08.375Z,97589.89
2018-11-27T13:56:36.043Z,97591.95
2018-11-27T13:59:03.846Z,97594.72
2018-11-27T14:01:31.590Z,97594.80
2018-11-27T14:03:59.364Z,97581.41
2018-11-27T14:06:27.140Z,97605.24
2018-11-27T14:08:54.922Z,97605.30
2018-11-27T14:11:22.740Z,97610.92
2018-11-27T14:13:50.516Z,97607.21
2018-11-27T14:16:18.244Z,97612.89
2018-11-27T14:18:46.054Z,97614.55
2018-11-27T14:21:13.954Z,97617.88
2018-11-27T14:23:41.766Z,97616.30
2018-11-27T14:26:09.551Z,97617.39
2018-11-27T14:28:37.351Z,97624.04
2018-11-27T14:31:05.474Z,97622.13
2018-11-27T14:33:33.134Z,97629.02
2018-11-27T14:36:00.781Z,97633.38
2018-11-27T14:38:29.797Z,97630.16
2018-11-27T14:40:57.690Z,97633.92
2018-11-27T14:43:25.707Z,97642.30
2018-11-27T14:45:53.747Z,97651.97
2018-11-27T14:48:21.459Z,97654.88
2018-11-27T14:50:49.312Z,97654.58
2018-11-27T14:53:17.098Z,97660.36
2018-11-27T14:55:44.929Z,97659.95
2018-11-27T14:58:15.015Z,97668.97
2018-11-27T15:00:41.271Z,97667.31
2018-11-27T15:03:09.471Z,97673.48
2018-11-27T15:05:37.826Z,97674.60
2018-11-27T15:08:10.424Z,97681.33
2018-11-27T15:10:38.211Z,97679.31
2018-11-27T15:13:06.224Z,97682.25
2018-11-27T15:15:33.930Z,97690.47
2018-11-27T15:18:01.685Z,97691.05
2018-11-27T15:20:29.487Z,97696.42
2018-11-27T15:22:57.142Z,97699.83
2018-11-27T15:25:24.803Z,97699.26
2018-11-27T15:27:52.448Z,97698.72
2018-11-27T15:30:24.532Z,97706.39
2018-11-27T15:32:53.835Z,97707.37
2018-11-27T15:35:21.557Z,97706.34
2018-11-27T15:37:49.328Z,97716.61
2018-11-27T15:40:17.900Z,97716.30
2018-11-27T15:42:45.570Z,97719.11
2018-11-27T15:45:14.189Z,97720.15
2018-11-27T15:47:41.838Z,97721.00
2018-11-27T15:50:09.724Z,97722.39
2018-11-27T15:52:37.705Z,97725.34
2018-11-27T15:55:36.904Z,97722.66
2018-11-27T15:58:07.184Z,97722.89
2018-11-27T16:00:34.919Z,97725.58
2018-11-27T16:03:02.635Z,97728.52
2018-11-27T16:05:30.334Z,97729.25
2018-11-27T16:07:58.198Z,97728.13
2018-11-27T16:10:25.911Z,97731.27
2018-11-27T16:12:53.662Z,97738.16
2018-11-27T16:15:21.319Z,97747.34
2018-11-27T16:17:49.631Z,97745.84
2018-11-27T16:20:18.583Z,97747.50
2018-11-27T16:22:47.895Z,97748.84
2018-11-27T16:25:16.335Z,97756.59
2018-11-27T16:27:44.095Z,97763.02
2018-11-27T16:30:12.617Z,97766.73
2018-11-27T16:32:40.399Z,97777.57
2018-11-27T16:35:08.260Z,97778.86
2018-11-27T16:37:36.021Z,97781.27
2018-11-27T16:40:04.185Z,97779.39
2018-11-27T16:42:31.888Z,97778.58
2018-11-27T16:44:59.525Z,97781.27
2018-11-27T16:47:27.179Z,97786.20
2018-11-27T16:49:54.804Z,97786.08
2018-11-27T16:52:22.435Z,97784.31
2018-11-27T16:54:50.063Z,97782.34
2018-11-27T16:57:17.696Z,97796.15
2018-11-27T16:59:45.368Z,97799.72
2018-11-27T17:02:13.019Z,97795.08
2018-11-27T17:04:40.652Z,97796.42
2018-11-27T17:07:08.299Z,97793.31
2018-11-27T17:09:35.946Z,97798.77
2018-11-27T17:12:03.571Z,97799.61
2018-11-27T17:14:31.205Z,97805.30
2018-11-27T17:16:58.853Z,97805.98
2018-11-27T17:19:26.467Z,97806.64
2018-11-27T17:21:54.093Z,97808.29
2018-11-27T17:24:21.843Z,97804.33
2018-11-27T17:26:49.523Z,97805.18
2018-11-27T17:29:17.150Z,97815.08
2018-11-27T17:31:44.804Z,97805.91
2018-11-27T17:34:13.508Z,97814.59
2018-11-27T17:36:41.213Z,97824.72
2018-11-27T17:39:10.440Z,97822.11
2018-11-27T17:41:38.073Z,97824.30
2018-11-27T17:44:06.497Z,97830.55
2018-11-27T17:46:34.140Z,97828.28
2018-11-27T17:49:01.758Z,97829.02
2018-11-27T17:51:29.393Z,97831.09
2018-11-27T17:53:57.016Z,97829.51
2018-11-27T17:56:24.705Z,97834.58
2018-11-27T17:58:52.348Z,97833.04
2018-11-27T18:01:20.028Z,97841.34
2018-11-27T18:03:47.692Z,97843.48
2018-11-27T18:06:15.407Z,97845.20
2018-11-27T18:08:44.132Z,97846.28
2018-11-27T18:11:12.123Z,97848.44
2018-11-27T18:13:39.813Z,97848.81
2018-11-27T18:16:07.475Z,97845.52
2018-11-27T18:18:35.290Z,97846.25
2018-11-27T18:21:03.167Z,97850.62
2018-11-27T18:23:30.859Z,97861.74
2018-11-27T18:25:58.498Z,97865.97
2018-11-27T18:28:26.131Z,97866.81
2018-11-27T18:30:53.780Z,97867.78
2018-11-27T18:33:21.416Z,97861.44
2018-11-27T18:35:49.153Z,97862.12
2018-11-27T18:38:16.791Z,97868.23
2018-11-27T18:40:44.412Z,97874.03
2018-11-27T18:43:12.066Z,97870.48
2018-11-27T18:45:39.828Z,97866.02
2018-11-27T18:48:07.936Z,97872.49
2018-11-27T18:50:35.828Z,97875.28
2018-11-27T18:53:03.645Z,97874.01
2018-11-27T18:55:31.363Z,97876.39
2018-11-27T18:57:59.019Z,97878.23
2018-11-27T19:00:28.685Z,97874.81
2018-11-27T19:02:56.431Z,97885.59
2018-11-27T19:05:24.208Z,97883.17
2018-11-27T19:07:51.869Z,97887.98
2018-11-27T19:10:22.339Z,97884.02
2018-11-27T19:12:50.068Z,97885.43
2018-11-27T19:15:23.088Z,97883.84
2018-11-27T19:17:53.097Z,97883.11
2018-11-27T19:20:20.803Z,97882.74
2018-11-27T19:22:50.003Z,97887.38
2018-11-27T19:25:18.786Z,97887.08
2018-11-27T19:27:46.963Z,97886.58
2018-11-27T19:30:16.123Z,97892.31
2018-11-27T19:32:44.047Z,97899.53
2018-11-27T19:35:12.872Z,97898.42
2018-11-27T19:37:40.551Z,97908.36
2018-11-27T19:40:09.992Z,97910.52
2018-11-27T19:42:37.623Z,97913.20
2018-11-27T19:45:06.736Z,97911.86
2018-11-27T19:47:34.936Z,97913.20
2018-11-27T19:50:02.619Z,97916.12
2018-11-27T19:52:30.266Z,97914.98
2018-11-27T19:54:57.891Z,97921.93
2018-11-27T19:57:25.510Z,97921.45
2018-11-27T19:59:53.135Z,97930.86
2018-11-27T20:02:20.763Z,97931.77
2018-11-27T20:04:48.396Z,97937.67
2018-11-27T20:07:16.028Z,97940.45
2018-11-27T20:09:43.677Z,97937.91
2018-11-27T20:12:11.300Z,97942.20
2018-11-27T20:14:38.974Z,97939.62
2018-11-27T20:17:06.638Z,97948.05
2018-11-27T20:19:34.262Z,97949.45
2018-11-27T20:22:01.968Z,97949.45
2018-11-27T20:24:29.601Z,97950.56
2018-11-27T20:26:57.323Z,97953.28
2018-11-27T20:29:24.964Z,97952.21
2018-11-27T20:31:52.590Z,97950.16
2018-11-27T20:34:20.266Z,97947.47
2018-11-27T20:36:47.904Z,97953.34
2018-11-27T20:39:15.541Z,97956.94
2018-11-27T20:41:43.179Z,97965.83
2018-11-27T20:44:10.876Z,97955.73
2018-11-27T20:46:38.521Z,97967.67
2018-11-27T20:49:06.351Z,97969.62
2018-11-27T20:51:33.993Z,97969.26
2018-11-27T20:54:01.624Z,97975.97
2018-11-27T20:56:29.271Z,97980.60
2018-11-27T20:58:57.491Z,97980.57
2018-11-27T21:01:25.112Z,97981.02
2018-11-27T21:03:52.813Z,97987.08
2018-11-27T21:06:20.481Z,97980.36
2018-11-27T21:08:48.114Z,97984.16
2018-11-27T21:11:15.753Z,97993.79
2018-11-27T21:13:43.512Z,97986.48
2018-11-27T21:16:11.144Z,97993.49
2018-11-27T21:18:38.830Z,97996.23
2018-11-27T21:21:06.784Z,97994.53
2018-11-27T21:23:34.407Z,97994.66
2018-11-27T21:26:05.359Z,97993.25
2018-11-27T21:28:33.317Z,97993.10
2018-11-27T21:31:00.985Z,98000.20
2018-11-27T21:33:28.637Z,98006.02
2018-11-27T21:35:56.360Z,98005.48
2018-11-27T21:38:24.020Z,98004.17
2018-11-27T21:40:51.670Z,97998.50
2018-11-27T21:43:19.341Z,97996.41
2018-11-27T21:45:47.080Z,97999.97
2018-11-27T21:48:14.775Z,97998.63
2018-11-27T21:50:43.453Z,97993.19
2018-11-27T21:53:11.160Z,97994.23
2018-11-27T21:55:39.420Z,97996.12
2018-11-27T21:58:07.257Z,98005.64
2018-11-27T22:00:34.929Z,98011.48
2018-11-27T22:03:02.728Z,98009.31
2018-11-27T22:05:30.396Z,98008.20
2018-11-27T22:07:58.067Z,98006.41
2018-11-27T22:10:25.974Z,98014.62
2018-11-27T22:12:55.059Z,98014.38
2018-11-27T22:15:27.562Z,98018.11
2018-11-27T22:17:55.199Z,98016.77
2018-11-27T22:20:22.889Z,98012.50
2018-11-27T22:22:50.548Z,98020.28
2018-11-27T22:25:18.219Z,98017.36
2018-11-27T22:27:45.880Z,98020.80
2018-11-27T22:30:14.227Z,98026.47
2018-11-27T22:32:42.729Z,98031.54
2018-11-27T22:35:10.592Z,98032.13
2018-11-27T22:37:38.250Z,98031.54
2018-11-27T22:40:09.690Z,98031.59
2018-11-27T22:42:37.391Z,98037.41
2018-11-27T22:45:06.185Z,98031.48
2018-11-27T22:47:33.847Z,98033.69
2018-11-27T22:50:01.499Z,98034.44
2018-11-27T22:52:29.189Z,98040.84
2018-11-27T22:54:57.039Z,98036.82
2018-11-27T22:57:24.705Z,98038.64
2018-11-27T22:59:52.364Z,98035.03
2018-11-27T23:02:20.016Z,98032.58
2018-11-27T23:04:47.709Z,98034.37
2018-11-27T23:07:19.568Z,98036.31
2018-11-27T23:09:47.328Z,98034.97
2018-11-27T23:12:14.989Z,98037.86
2018-11-27T23:14:42.640Z,98033.27
2018-11-27T23:17:10.280Z,98032.88
2018-11-27T23:19:37.948Z,98030.88
2018-11-27T23:22:05.722Z,98025.87
2018-11-27T23:24:33.411Z,98021.98
2018-11-27T23:27:01.096Z,98022.79
2018-11-27T23:29:28.757Z,98025.48
2018-11-27T23:31:56.394Z,98020.94
2018-11-27T23:34:24.069Z,98018.77
2018-11-27T23:36:51.776Z,98015.57
2018-11-27T23:39:19.472Z,98012.82
2018-11-27T23:41:47.124Z,98021.48
2018-11-27T23:44:14.801Z,98023.42
2018-11-27T23:46:42.449Z,98011.09
2018-11-27T23:49:10.162Z,98016.70
2018-11-27T23:51:37.795Z,98017.95
2018-11-27T23:54:05.790Z,98018.02
2018-11-27T23:56:33.449Z,98020.73
2018-11-27T23:59:01.104Z,98024.38
